sensor_id;sensor_type;location;lat;lon;timestamp;P1;durP1;ratioP1;P2;durP2;ratioP2
13163;SDS011;6647;53.688;10.746;2023-05-03T00:01:10;4.30;;;1.48;;
13163;SDS011;6647;53.688;10.746;2023-05-03T00:02:31;5.30;;;2.35;;
13163;SDS011;6647;53.688;10.746;2023-05-03T00:03:52;4.53;;;2.40;;
13163;SDS011;6647;53.688;10.746;2023-05-03T00:05:13;3.38;;;2.00;;
13163;SDS011;6647;53.688;10.746;2023-05-03T00:06:34;7.10;;;2.35;;
13163;SDS011;6647;53.688;10.746;2023-05-03T00:07:55;5.32;;;1.85;;
13163;SDS011;6647;53.688;10.746;2023-05-03T00:09:16;5.60;;;2.15;;
13163;SDS011;6647;53.688;10.746;2023-05-03T00:10:37;3.75;;;2.08;;
13163;SDS011;6647;53.688;10.746;2023-05-03T00:11:58;6.50;;;1.70;;
13163;SDS011;6647;53.688;10.746;2023-05-03T00:13:20;6.35;;;1.90;;
13163;SDS011;6647;53.688;10.746;2023-05-03T00:14:41;7.53;;;1.75;;
13163;SDS011;6647;53.688;10.746;2023-05-03T00:16:02;8.05;;;2.17;;
13163;SDS011;6647;53.688;10.746;2023-05-03T00:17:23;11.05;;;2.10;;
13163;SDS011;6647;53.688;10.746;2023-05-03T00:18:44;3.72;;;1.90;;
13163;SDS011;6647;53.688;10.746;2023-05-03T00:20:05;4.93;;;2.35;;
13163;SDS011;6647;53.688;10.746;2023-05-03T00:21:27;5.43;;;1.90;;
13163;SDS011;6647;53.688;10.746;2023-05-03T00:22:48;4.38;;;1.90;;
13163;SDS011;6647;53.688;10.746;2023-05-03T00:24:09;4.43;;;2.17;;
13163;SDS011;6647;53.688;10.746;2023-05-03T00:25:30;5.82;;;2.22;;
13163;SDS011;6647;53.688;10.746;2023-05-03T00:26:51;4.40;;;1.80;;
13163;SDS011;6647;53.688;10.746;2023-05-03T00:28:12;3.88;;;2.15;;
13163;SDS011;6647;53.688;10.746;2023-05-03T00:29:33;3.53;;;1.83;;
13163;SDS011;6647;53.688;10.746;2023-05-03T00:30:53;3.65;;;1.77;;
13163;SDS011;6647;53.688;10.746;2023-05-03T00:32:14;5.53;;;1.92;;
13163;SDS011;6647;53.688;10.746;2023-05-03T00:33:36;5.60;;;2.30;;
13163;SDS011;6647;53.688;10.746;2023-05-03T00:34:57;6.63;;;2.60;;
13163;SDS011;6647;53.688;10.746;2023-05-03T00:36:18;4.78;;;2.20;;
13163;SDS011;6647;53.688;10.746;2023-05-03T00:37:39;6.22;;;1.80;;
13163;SDS011;6647;53.688;10.746;2023-05-03T00:39:00;3.53;;;2.17;;
13163;SDS011;6647;53.688;10.746;2023-05-03T00:40:21;6.22;;;2.22;;
13163;SDS011;6647;53.688;10.746;2023-05-03T00:41:42;5.97;;;2.08;;
13163;SDS011;6647;53.688;10.746;2023-05-03T00:43:02;4.05;;;2.00;;
13163;SDS011;6647;53.688;10.746;2023-05-03T00:44:23;3.67;;;2.35;;
13163;SDS011;6647;53.688;10.746;2023-05-03T00:45:44;3.58;;;1.90;;
13163;SDS011;6647;53.688;10.746;2023-05-03T00:47:07;3.17;;;1.88;;
13163;SDS011;6647;53.688;10.746;2023-05-03T00:48:28;11.43;;;2.30;;
13163;SDS011;6647;53.688;10.746;2023-05-03T00:49:49;4.57;;;1.80;;
13163;SDS011;6647;53.688;10.746;2023-05-03T00:51:11;10.88;;;2.15;;
13163;SDS011;6647;53.688;10.746;2023-05-03T00:52:33;4.20;;;2.03;;
13163;SDS011;6647;53.688;10.746;2023-05-03T00:53:55;4.72;;;2.00;;
13163;SDS011;6647;53.688;10.746;2023-05-03T00:55:16;8.52;;;2.60;;
13163;SDS011;6647;53.688;10.746;2023-05-03T00:56:37;3.90;;;1.77;;
13163;SDS011;6647;53.688;10.746;2023-05-03T00:57:59;5.90;;;2.15;;
13163;SDS011;6647;53.688;10.746;2023-05-03T00:59:20;6.78;;;1.98;;
13163;SDS011;6647;53.688;10.746;2023-05-03T01:00:41;5.43;;;2.00;;
13163;SDS011;6647;53.688;10.746;2023-05-03T01:02:02;3.70;;;2.20;;
13163;SDS011;6647;53.688;10.746;2023-05-03T01:03:23;4.32;;;2.35;;
13163;SDS011;6647;53.688;10.746;2023-05-03T01:04:44;5.78;;;1.90;;
13163;SDS011;6647;53.688;10.746;2023-05-03T01:06:07;7.68;;;2.42;;
13163;SDS011;6647;53.688;10.746;2023-05-03T01:07:39;5.72;;;1.98;;
13163;SDS011;6647;53.688;10.746;2023-05-03T01:09:09;6.57;;;2.40;;
13163;SDS011;6647;53.688;10.746;2023-05-03T01:11:01;3.40;;;2.17;;
13163;SDS011;6647;53.688;10.746;2023-05-03T01:14:44;4.78;;;2.13;;
13163;SDS011;6647;53.688;10.746;2023-05-03T01:16:34;2.67;;;1.77;;
13163;SDS011;6647;53.688;10.746;2023-05-03T01:18:05;2.83;;;2.50;;
13163;SDS011;6647;53.688;10.746;2023-05-03T01:19:32;4.07;;;2.30;;
13163;SDS011;6647;53.688;10.746;2023-05-03T01:20:59;6.88;;;2.35;;
13163;SDS011;6647;53.688;10.746;2023-05-03T01:25:38;6.80;;;2.53;;
13163;SDS011;6647;53.688;10.746;2023-05-03T01:26:59;7.40;;;2.05;;
13163;SDS011;6647;53.688;10.746;2023-05-03T01:28:20;7.03;;;2.22;;
13163;SDS011;6647;53.688;10.746;2023-05-03T01:29:40;3.25;;;2.05;;
13163;SDS011;6647;53.688;10.746;2023-05-03T01:31:03;5.28;;;2.15;;
13163;SDS011;6647;53.688;10.746;2023-05-03T01:32:25;3.58;;;1.83;;
13163;SDS011;6647;53.688;10.746;2023-05-03T01:34:09;4.95;;;1.95;;
13163;SDS011;6647;53.688;10.746;2023-05-03T01:35:40;3.72;;;2.30;;
13163;SDS011;6647;53.688;10.746;2023-05-03T01:37:11;7.28;;;2.20;;
13163;SDS011;6647;53.688;10.746;2023-05-03T01:38:35;8.30;;;2.50;;
13163;SDS011;6647;53.688;10.746;2023-05-03T01:40:00;8.10;;;2.88;;
13163;SDS011;6647;53.688;10.746;2023-05-03T01:41:27;4.18;;;2.47;;
13163;SDS011;6647;53.688;10.746;2023-05-03T01:42:49;6.55;;;2.30;;
13163;SDS011;6647;53.688;10.746;2023-05-03T01:44:11;6.40;;;2.60;;
13163;SDS011;6647;53.688;10.746;2023-05-03T01:45:34;3.30;;;2.20;;
13163;SDS011;6647;53.688;10.746;2023-05-03T01:46:55;4.75;;;1.92;;
13163;SDS011;6647;53.688;10.746;2023-05-03T01:48:18;5.68;;;2.38;;
13163;SDS011;6647;53.688;10.746;2023-05-03T01:49:39;2.65;;;2.05;;
13163;SDS011;6647;53.688;10.746;2023-05-03T01:51:00;5.72;;;2.08;;
13163;SDS011;6647;53.688;10.746;2023-05-03T01:52:21;6.13;;;2.60;;
13163;SDS011;6647;53.688;10.746;2023-05-03T01:53:42;4.22;;;2.28;;
13163;SDS011;6647;53.688;10.746;2023-05-03T01:55:03;4.43;;;2.40;;
13163;SDS011;6647;53.688;10.746;2023-05-03T01:56:25;6.25;;;2.58;;
13163;SDS011;6647;53.688;10.746;2023-05-03T01:57:46;10.23;;;2.33;;
13163;SDS011;6647;53.688;10.746;2023-05-03T01:59:07;2.95;;;2.50;;
13163;SDS011;6647;53.688;10.746;2023-05-03T02:00:28;2.70;;;2.25;;
13163;SDS011;6647;53.688;10.746;2023-05-03T02:01:49;3.47;;;2.35;;
13163;SDS011;6647;53.688;10.746;2023-05-03T02:03:10;3.58;;;2.17;;
13163;SDS011;6647;53.688;10.746;2023-05-03T02:04:30;5.50;;;2.28;;
13163;SDS011;6647;53.688;10.746;2023-05-03T02:05:51;5.57;;;2.50;;
13163;SDS011;6647;53.688;10.746;2023-05-03T02:07:12;4.22;;;2.13;;
13163;SDS011;6647;53.688;10.746;2023-05-03T02:08:33;4.72;;;2.60;;
13163;SDS011;6647;53.688;10.746;2023-05-03T02:09:54;4.32;;;1.92;;
13163;SDS011;6647;53.688;10.746;2023-05-03T02:11:15;9.13;;;2.60;;
13163;SDS011;6647;53.688;10.746;2023-05-03T02:12:36;7.25;;;3.20;;
13163;SDS011;6647;53.688;10.746;2023-05-03T02:13:57;9.27;;;3.00;;
13163;SDS011;6647;53.688;10.746;2023-05-03T02:15:17;5.25;;;2.60;;
13163;SDS011;6647;53.688;10.746;2023-05-03T02:16:41;8.57;;;2.63;;
13163;SDS011;6647;53.688;10.746;2023-05-03T02:18:02;6.63;;;2.78;;
13163;SDS011;6647;53.688;10.746;2023-05-03T02:19:24;5.95;;;2.20;;
13163;SDS011;6647;53.688;10.746;2023-05-03T02:20:46;3.72;;;2.28;;
13163;SDS011;6647;53.688;10.746;2023-05-03T02:22:07;4.45;;;2.03;;
13163;SDS011;6647;53.688;10.746;2023-05-03T02:23:28;6.05;;;2.25;;
13163;SDS011;6647;53.688;10.746;2023-05-03T02:24:49;5.97;;;2.95;;
13163;SDS011;6647;53.688;10.746;2023-05-03T02:26:10;4.05;;;2.22;;
13163;SDS011;6647;53.688;10.746;2023-05-03T02:27:30;7.22;;;2.25;;
13163;SDS011;6647;53.688;10.746;2023-05-03T02:28:51;4.13;;;2.20;;
13163;SDS011;6647;53.688;10.746;2023-05-03T02:30:12;6.75;;;3.05;;
13163;SDS011;6647;53.688;10.746;2023-05-03T02:31:33;6.55;;;2.80;;
13163;SDS011;6647;53.688;10.746;2023-05-03T02:32:54;11.85;;;3.20;;
13163;SDS011;6647;53.688;10.746;2023-05-03T02:34:15;7.15;;;2.88;;
13163;SDS011;6647;53.688;10.746;2023-05-03T02:35:36;7.50;;;2.22;;
13163;SDS011;6647;53.688;10.746;2023-05-03T02:36:57;3.50;;;2.60;;
13163;SDS011;6647;53.688;10.746;2023-05-03T02:38:18;3.63;;;2.15;;
13163;SDS011;6647;53.688;10.746;2023-05-03T02:39:39;5.38;;;2.95;;
13163;SDS011;6647;53.688;10.746;2023-05-03T02:41:00;4.22;;;2.55;;
13163;SDS011;6647;53.688;10.746;2023-05-03T02:42:20;5.00;;;2.85;;
13163;SDS011;6647;53.688;10.746;2023-05-03T02:43:42;5.25;;;2.55;;
13163;SDS011;6647;53.688;10.746;2023-05-03T02:45:02;8.98;;;2.60;;
13163;SDS011;6647;53.688;10.746;2023-05-03T02:46:24;3.60;;;1.95;;
13163;SDS011;6647;53.688;10.746;2023-05-03T02:47:44;8.32;;;2.03;;
13163;SDS011;6647;53.688;10.746;2023-05-03T02:49:05;4.78;;;2.38;;
13163;SDS011;6647;53.688;10.746;2023-05-03T02:50:27;3.90;;;3.45;;
13163;SDS011;6647;53.688;10.746;2023-05-03T02:51:47;3.03;;;2.50;;
13163;SDS011;6647;53.688;10.746;2023-05-03T02:53:08;4.50;;;2.60;;
13163;SDS011;6647;53.688;10.746;2023-05-03T02:54:29;2.97;;;2.22;;
13163;SDS011;6647;53.688;10.746;2023-05-03T02:55:50;8.98;;;2.58;;
13163;SDS011;6647;53.688;10.746;2023-05-03T02:57:11;4.95;;;2.75;;
13163;SDS011;6647;53.688;10.746;2023-05-03T02:58:32;2.42;;;2.22;;
13163;SDS011;6647;53.688;10.746;2023-05-03T02:59:53;5.45;;;2.75;;
13163;SDS011;6647;53.688;10.746;2023-05-03T03:01:14;2.72;;;2.25;;
13163;SDS011;6647;53.688;10.746;2023-05-03T03:02:35;6.25;;;2.50;;
13163;SDS011;6647;53.688;10.746;2023-05-03T03:03:56;11.98;;;3.05;;
13163;SDS011;6647;53.688;10.746;2023-05-03T03:05:16;6.22;;;2.70;;
13163;SDS011;6647;53.688;10.746;2023-05-03T03:06:37;5.30;;;2.55;;
13163;SDS011;6647;53.688;10.746;2023-05-03T03:07:58;4.60;;;2.97;;
13163;SDS011;6647;53.688;10.746;2023-05-03T03:09:19;2.40;;;2.20;;
13163;SDS011;6647;53.688;10.746;2023-05-03T03:10:40;4.78;;;2.30;;
13163;SDS011;6647;53.688;10.746;2023-05-03T03:12:01;4.03;;;2.03;;
13163;SDS011;6647;53.688;10.746;2023-05-03T03:13:22;8.95;;;2.70;;
13163;SDS011;6647;53.688;10.746;2023-05-03T03:14:43;2.85;;;2.20;;
13163;SDS011;6647;53.688;10.746;2023-05-03T03:16:05;4.07;;;3.35;;
13163;SDS011;6647;53.688;10.746;2023-05-03T03:17:27;8.82;;;2.40;;
13163;SDS011;6647;53.688;10.746;2023-05-03T03:18:47;3.35;;;2.40;;
13163;SDS011;6647;53.688;10.746;2023-05-03T03:20:08;4.15;;;2.25;;
13163;SDS011;6647;53.688;10.746;2023-05-03T03:21:30;6.18;;;2.45;;
13163;SDS011;6647;53.688;10.746;2023-05-03T03:22:52;6.95;;;3.00;;
13163;SDS011;6647;53.688;10.746;2023-05-03T03:24:12;8.02;;;3.08;;
13163;SDS011;6647;53.688;10.746;2023-05-03T03:25:34;7.05;;;2.78;;
13163;SDS011;6647;53.688;10.746;2023-05-03T03:26:55;4.47;;;2.85;;
13163;SDS011;6647;53.688;10.746;2023-05-03T03:28:17;7.90;;;2.80;;
13163;SDS011;6647;53.688;10.746;2023-05-03T03:29:38;6.47;;;3.40;;
13163;SDS011;6647;53.688;10.746;2023-05-03T03:30:59;6.93;;;2.30;;
13163;SDS011;6647;53.688;10.746;2023-05-03T03:32:20;4.03;;;2.28;;
13163;SDS011;6647;53.688;10.746;2023-05-03T03:33:41;4.88;;;2.80;;
13163;SDS011;6647;53.688;10.746;2023-05-03T03:35:02;3.08;;;2.30;;
13163;SDS011;6647;53.688;10.746;2023-05-03T03:36:24;3.45;;;2.78;;
13163;SDS011;6647;53.688;10.746;2023-05-03T03:37:45;4.78;;;2.75;;
13163;SDS011;6647;53.688;10.746;2023-05-03T03:39:05;3.95;;;2.95;;
13163;SDS011;6647;53.688;10.746;2023-05-03T03:40:26;8.55;;;2.80;;
13163;SDS011;6647;53.688;10.746;2023-05-03T03:41:47;6.90;;;3.05;;
13163;SDS011;6647;53.688;10.746;2023-05-03T03:43:08;5.35;;;2.70;;
13163;SDS011;6647;53.688;10.746;2023-05-03T03:44:29;3.65;;;2.58;;
13163;SDS011;6647;53.688;10.746;2023-05-03T03:45:50;4.88;;;2.70;;
13163;SDS011;6647;53.688;10.746;2023-05-03T03:47:11;6.40;;;2.95;;
13163;SDS011;6647;53.688;10.746;2023-05-03T03:48:32;7.28;;;2.45;;
13163;SDS011;6647;53.688;10.746;2023-05-03T03:49:52;3.85;;;2.88;;
13163;SDS011;6647;53.688;10.746;2023-05-03T03:51:13;8.15;;;2.67;;
13163;SDS011;6647;53.688;10.746;2023-05-03T03:52:35;4.72;;;3.00;;
13163;SDS011;6647;53.688;10.746;2023-05-03T03:53:56;10.75;;;3.15;;
13163;SDS011;6647;53.688;10.746;2023-05-03T03:55:18;9.95;;;2.60;;
13163;SDS011;6647;53.688;10.746;2023-05-03T03:56:39;5.93;;;3.00;;
13163;SDS011;6647;53.688;10.746;2023-05-03T03:58:00;5.47;;;2.88;;
13163;SDS011;6647;53.688;10.746;2023-05-03T03:59:20;4.90;;;3.15;;
13163;SDS011;6647;53.688;10.746;2023-05-03T04:00:41;7.95;;;3.35;;
13163;SDS011;6647;53.688;10.746;2023-05-03T04:02:03;3.75;;;2.60;;
13163;SDS011;6647;53.688;10.746;2023-05-03T04:03:23;5.90;;;2.80;;
13163;SDS011;6647;53.688;10.746;2023-05-03T04:04:44;9.25;;;3.25;;
13163;SDS011;6647;53.688;10.746;2023-05-03T04:06:06;4.10;;;2.50;;
13163;SDS011;6647;53.688;10.746;2023-05-03T04:07:26;10.43;;;3.65;;
13163;SDS011;6647;53.688;10.746;2023-05-03T04:08:47;5.22;;;3.22;;
13163;SDS011;6647;53.688;10.746;2023-05-03T04:10:08;7.53;;;3.00;;
13163;SDS011;6647;53.688;10.746;2023-05-03T04:11:29;3.08;;;2.78;;
13163;SDS011;6647;53.688;10.746;2023-05-03T04:12:51;6.30;;;3.50;;
13163;SDS011;6647;53.688;10.746;2023-05-03T04:14:11;4.60;;;3.28;;
13163;SDS011;6647;53.688;10.746;2023-05-03T04:15:32;8.95;;;2.60;;
13163;SDS011;6647;53.688;10.746;2023-05-03T04:16:53;10.30;;;3.55;;
13163;SDS011;6647;53.688;10.746;2023-05-03T04:18:15;7.15;;;3.15;;
13163;SDS011;6647;53.688;10.746;2023-05-03T04:19:36;3.58;;;2.90;;
13163;SDS011;6647;53.688;10.746;2023-05-03T04:20:57;6.35;;;3.13;;
13163;SDS011;6647;53.688;10.746;2023-05-03T04:22:18;2.97;;;2.38;;
13163;SDS011;6647;53.688;10.746;2023-05-03T04:23:39;5.85;;;3.25;;
13163;SDS011;6647;53.688;10.746;2023-05-03T04:25:00;13.38;;;3.50;;
13163;SDS011;6647;53.688;10.746;2023-05-03T04:26:21;5.20;;;3.13;;
13163;SDS011;6647;53.688;10.746;2023-05-03T04:27:43;12.05;;;3.05;;
13163;SDS011;6647;53.688;10.746;2023-05-03T04:29:05;6.38;;;3.00;;
13163;SDS011;6647;53.688;10.746;2023-05-03T04:30:26;6.75;;;2.95;;
13163;SDS011;6647;53.688;10.746;2023-05-03T04:31:48;7.82;;;3.20;;
13163;SDS011;6647;53.688;10.746;2023-05-03T04:33:09;7.45;;;2.90;;
13163;SDS011;6647;53.688;10.746;2023-05-03T04:34:30;6.68;;;3.63;;
13163;SDS011;6647;53.688;10.746;2023-05-03T04:35:51;6.00;;;2.65;;
13163;SDS011;6647;53.688;10.746;2023-05-03T04:37:12;11.05;;;3.40;;
13163;SDS011;6647;53.688;10.746;2023-05-03T04:38:33;11.40;;;3.97;;
13163;SDS011;6647;53.688;10.746;2023-05-03T04:39:54;5.65;;;3.22;;
13163;SDS011;6647;53.688;10.746;2023-05-03T04:41:15;14.95;;;3.63;;
13163;SDS011;6647;53.688;10.746;2023-05-03T04:42:36;5.43;;;3.00;;
13163;SDS011;6647;53.688;10.746;2023-05-03T04:43:58;7.82;;;3.10;;
13163;SDS011;6647;53.688;10.746;2023-05-03T04:45:19;8.38;;;3.20;;
13163;SDS011;6647;53.688;10.746;2023-05-03T04:46:40;12.93;;;3.95;;
13163;SDS011;6647;53.688;10.746;2023-05-03T04:48:01;6.95;;;3.90;;
13163;SDS011;6647;53.688;10.746;2023-05-03T04:49:24;10.98;;;3.42;;
13163;SDS011;6647;53.688;10.746;2023-05-03T04:50:45;11.30;;;3.45;;
13163;SDS011;6647;53.688;10.746;2023-05-03T04:52:06;4.45;;;2.97;;
13163;SDS011;6647;53.688;10.746;2023-05-03T04:53:27;4.28;;;2.63;;
13163;SDS011;6647;53.688;10.746;2023-05-03T04:54:48;7.78;;;2.97;;
13163;SDS011;6647;53.688;10.746;2023-05-03T04:56:09;7.72;;;2.95;;
13163;SDS011;6647;53.688;10.746;2023-05-03T04:57:30;7.45;;;3.60;;
13163;SDS011;6647;53.688;10.746;2023-05-03T04:58:54;8.57;;;4.00;;
13163;SDS011;6647;53.688;10.746;2023-05-03T05:00:15;9.98;;;3.38;;
13163;SDS011;6647;53.688;10.746;2023-05-03T05:01:36;5.95;;;3.00;;
13163;SDS011;6647;53.688;10.746;2023-05-03T05:02:56;6.57;;;3.35;;
13163;SDS011;6647;53.688;10.746;2023-05-03T05:04:18;3.95;;;2.65;;
13163;SDS011;6647;53.688;10.746;2023-05-03T05:05:38;5.00;;;3.13;;
13163;SDS011;6647;53.688;10.746;2023-05-03T05:06:59;8.07;;;3.20;;
13163;SDS011;6647;53.688;10.746;2023-05-03T05:08:20;7.63;;;3.35;;
13163;SDS011;6647;53.688;10.746;2023-05-03T05:09:41;3.40;;;3.10;;
13163;SDS011;6647;53.688;10.746;2023-05-03T05:11:02;5.22;;;3.15;;
13163;SDS011;6647;53.688;10.746;2023-05-03T05:12:24;7.18;;;3.20;;
13163;SDS011;6647;53.688;10.746;2023-05-03T05:13:46;5.47;;;3.40;;
13163;SDS011;6647;53.688;10.746;2023-05-03T05:15:07;7.20;;;2.88;;
13163;SDS011;6647;53.688;10.746;2023-05-03T05:16:28;5.70;;;3.80;;
13163;SDS011;6647;53.688;10.746;2023-05-03T05:17:49;8.57;;;3.65;;
13163;SDS011;6647;53.688;10.746;2023-05-03T05:19:10;5.63;;;2.47;;
13163;SDS011;6647;53.688;10.746;2023-05-03T05:20:32;7.45;;;3.25;;
13163;SDS011;6647;53.688;10.746;2023-05-03T05:21:52;7.05;;;3.53;;
13163;SDS011;6647;53.688;10.746;2023-05-03T05:23:13;5.07;;;3.05;;
13163;SDS011;6647;53.688;10.746;2023-05-03T05:24:34;4.25;;;3.25;;
13163;SDS011;6647;53.688;10.746;2023-05-03T05:25:55;9.25;;;3.50;;
13163;SDS011;6647;53.688;10.746;2023-05-03T05:27:19;8.38;;;3.53;;
13163;SDS011;6647;53.688;10.746;2023-05-03T05:28:40;8.18;;;3.08;;
13163;SDS011;6647;53.688;10.746;2023-05-03T05:30:01;8.77;;;3.50;;
13163;SDS011;6647;53.688;10.746;2023-05-03T05:31:23;8.25;;;4.10;;
13163;SDS011;6647;53.688;10.746;2023-05-03T05:32:44;7.50;;;3.80;;
13163;SDS011;6647;53.688;10.746;2023-05-03T05:34:05;8.68;;;3.30;;
13163;SDS011;6647;53.688;10.746;2023-05-03T05:35:26;12.70;;;3.97;;
13163;SDS011;6647;53.688;10.746;2023-05-03T05:36:47;7.15;;;3.20;;
13163;SDS011;6647;53.688;10.746;2023-05-03T05:38:09;7.63;;;3.78;;
13163;SDS011;6647;53.688;10.746;2023-05-03T05:39:31;7.28;;;3.47;;
13163;SDS011;6647;53.688;10.746;2023-05-03T05:40:52;5.50;;;3.03;;
13163;SDS011;6647;53.688;10.746;2023-05-03T05:42:13;5.80;;;3.38;;
13163;SDS011;6647;53.688;10.746;2023-05-03T05:43:35;8.63;;;3.20;;
13163;SDS011;6647;53.688;10.746;2023-05-03T05:44:56;6.68;;;3.65;;
13163;SDS011;6647;53.688;10.746;2023-05-03T05:46:16;8.38;;;4.53;;
13163;SDS011;6647;53.688;10.746;2023-05-03T05:47:40;8.43;;;3.33;;
13163;SDS011;6647;53.688;10.746;2023-05-03T05:49:01;7.65;;;4.10;;
13163;SDS011;6647;53.688;10.746;2023-05-03T05:50:22;13.70;;;4.85;;
13163;SDS011;6647;53.688;10.746;2023-05-03T05:51:43;5.85;;;3.10;;
13163;SDS011;6647;53.688;10.746;2023-05-03T05:53:04;5.03;;;3.38;;
13163;SDS011;6647;53.688;10.746;2023-05-03T05:54:25;8.38;;;3.40;;
13163;SDS011;6647;53.688;10.746;2023-05-03T05:55:46;12.23;;;4.10;;
13163;SDS011;6647;53.688;10.746;2023-05-03T05:57:07;10.23;;;2.88;;
13163;SDS011;6647;53.688;10.746;2023-05-03T05:58:28;6.50;;;3.22;;
13163;SDS011;6647;53.688;10.746;2023-05-03T05:59:49;10.45;;;3.42;;
13163;SDS011;6647;53.688;10.746;2023-05-03T06:01:10;13.60;;;3.58;;
13163;SDS011;6647;53.688;10.746;2023-05-03T06:02:32;6.40;;;3.20;;
13163;SDS011;6647;53.688;10.746;2023-05-03T06:03:52;8.00;;;3.15;;
13163;SDS011;6647;53.688;10.746;2023-05-03T06:05:15;6.40;;;3.65;;
13163;SDS011;6647;53.688;10.746;2023-05-03T06:06:36;6.63;;;3.33;;
13163;SDS011;6647;53.688;10.746;2023-05-03T06:07:58;9.32;;;3.58;;
13163;SDS011;6647;53.688;10.746;2023-05-03T06:09:19;4.65;;;3.15;;
13163;SDS011;6647;53.688;10.746;2023-05-03T06:10:40;9.38;;;2.85;;
13163;SDS011;6647;53.688;10.746;2023-05-03T06:12:01;5.60;;;2.88;;
13163;SDS011;6647;53.688;10.746;2023-05-03T06:13:22;16.75;;;3.70;;
13163;SDS011;6647;53.688;10.746;2023-05-03T06:14:44;6.97;;;2.65;;
13163;SDS011;6647;53.688;10.746;2023-05-03T06:16:05;4.55;;;2.40;;
13163;SDS011;6647;53.688;10.746;2023-05-03T06:17:26;6.68;;;2.58;;
13163;SDS011;6647;53.688;10.746;2023-05-03T06:18:47;6.53;;;2.30;;
13163;SDS011;6647;53.688;10.746;2023-05-03T06:20:08;7.85;;;2.95;;
13163;SDS011;6647;53.688;10.746;2023-05-03T06:21:32;6.40;;;3.13;;
13163;SDS011;6647;53.688;10.746;2023-05-03T06:22:53;4.55;;;1.92;;
13163;SDS011;6647;53.688;10.746;2023-05-03T06:24:15;10.93;;;2.65;;
13163;SDS011;6647;53.688;10.746;2023-05-03T06:25:40;10.90;;;2.05;;
13163;SDS011;6647;53.688;10.746;2023-05-03T06:27:01;7.50;;;2.20;;
13163;SDS011;6647;53.688;10.746;2023-05-03T06:28:22;11.10;;;2.75;;
13163;SDS011;6647;53.688;10.746;2023-05-03T06:29:43;7.00;;;2.53;;
13163;SDS011;6647;53.688;10.746;2023-05-03T06:31:10;8.07;;;2.20;;
13163;SDS011;6647;53.688;10.746;2023-05-03T06:32:31;12.38;;;2.80;;
13163;SDS011;6647;53.688;10.746;2023-05-03T06:33:51;8.52;;;2.30;;
13163;SDS011;6647;53.688;10.746;2023-05-03T06:35:12;7.57;;;2.55;;
13163;SDS011;6647;53.688;10.746;2023-05-03T06:36:33;5.22;;;2.35;;
13163;SDS011;6647;53.688;10.746;2023-05-03T06:37:54;6.75;;;2.00;;
13163;SDS011;6647;53.688;10.746;2023-05-03T06:39:15;4.30;;;1.98;;
13163;SDS011;6647;53.688;10.746;2023-05-03T06:40:36;9.15;;;1.95;;
13163;SDS011;6647;53.688;10.746;2023-05-03T06:41:57;4.03;;;2.05;;
13163;SDS011;6647;53.688;10.746;2023-05-03T06:43:18;4.75;;;1.80;;
13163;SDS011;6647;53.688;10.746;2023-05-03T06:44:41;2.90;;;2.08;;
13163;SDS011;6647;53.688;10.746;2023-05-03T06:46:02;4.15;;;1.83;;
13163;SDS011;6647;53.688;10.746;2023-05-03T06:47:23;3.47;;;1.90;;
13163;SDS011;6647;53.688;10.746;2023-05-03T06:48:44;4.88;;;2.03;;
13163;SDS011;6647;53.688;10.746;2023-05-03T06:50:04;14.90;;;2.20;;
13163;SDS011;6647;53.688;10.746;2023-05-03T06:51:26;4.50;;;2.22;;
13163;SDS011;6647;53.688;10.746;2023-05-03T06:52:52;2.95;;;1.73;;
13163;SDS011;6647;53.688;10.746;2023-05-03T06:54:13;2.65;;;1.67;;
13163;SDS011;6647;53.688;10.746;2023-05-03T06:55:34;9.35;;;1.80;;
13163;SDS011;6647;53.688;10.746;2023-05-03T06:56:55;3.30;;;1.90;;
13163;SDS011;6647;53.688;10.746;2023-05-03T06:58:16;3.55;;;1.60;;
13163;SDS011;6647;53.688;10.746;2023-05-03T06:59:37;1.90;;;1.70;;
13163;SDS011;6647;53.688;10.746;2023-05-03T07:00:58;11.45;;;1.80;;
13163;SDS011;6647;53.688;10.746;2023-05-03T07:02:24;8.85;;;2.25;;
13163;SDS011;6647;53.688;10.746;2023-05-03T07:03:46;11.40;;;1.90;;
13163;SDS011;6647;53.688;10.746;2023-05-03T07:05:06;5.45;;;1.95;;
13163;SDS011;6647;53.688;10.746;2023-05-03T07:06:27;3.35;;;1.65;;
13163;SDS011;6647;53.688;10.746;2023-05-03T07:07:48;4.18;;;2.15;;
13163;SDS011;6647;53.688;10.746;2023-05-03T07:09:09;8.77;;;1.80;;
13163;SDS011;6647;53.688;10.746;2023-05-03T07:10:30;3.97;;;1.55;;
13163;SDS011;6647;53.688;10.746;2023-05-03T07:11:51;13.35;;;2.63;;
13163;SDS011;6647;53.688;10.746;2023-05-03T07:13:12;6.93;;;1.70;;
13163;SDS011;6647;53.688;10.746;2023-05-03T07:14:33;9.88;;;2.08;;
13163;SDS011;6647;53.688;10.746;2023-05-03T07:15:54;6.72;;;2.08;;
13163;SDS011;6647;53.688;10.746;2023-05-03T07:17:15;5.68;;;1.90;;
13163;SDS011;6647;53.688;10.746;2023-05-03T07:18:36;5.43;;;2.17;;
13163;SDS011;6647;53.688;10.746;2023-05-03T07:19:57;3.05;;;1.55;;
13163;SDS011;6647;53.688;10.746;2023-05-03T07:21:18;8.38;;;1.88;;
13163;SDS011;6647;53.688;10.746;2023-05-03T07:22:39;2.35;;;1.33;;
13163;SDS011;6647;53.688;10.746;2023-05-03T07:24:00;6.57;;;2.20;;
13163;SDS011;6647;53.688;10.746;2023-05-03T07:25:21;4.40;;;1.83;;
13163;SDS011;6647;53.688;10.746;2023-05-03T07:26:41;5.25;;;1.75;;
13163;SDS011;6647;53.688;10.746;2023-05-03T07:28:02;2.90;;;1.83;;
13163;SDS011;6647;53.688;10.746;2023-05-03T07:29:23;4.38;;;1.70;;
13163;SDS011;6647;53.688;10.746;2023-05-03T07:30:45;7.57;;;2.13;;
13163;SDS011;6647;53.688;10.746;2023-05-03T07:32:06;8.48;;;2.28;;
13163;SDS011;6647;53.688;10.746;2023-05-03T07:33:28;2.47;;;1.60;;
13163;SDS011;6647;53.688;10.746;2023-05-03T07:34:48;7.28;;;2.00;;
13163;SDS011;6647;53.688;10.746;2023-05-03T07:36:10;6.95;;;2.10;;
13163;SDS011;6647;53.688;10.746;2023-05-03T07:37:30;12.75;;;1.83;;
13163;SDS011;6647;53.688;10.746;2023-05-03T07:38:51;10.90;;;2.20;;
13163;SDS011;6647;53.688;10.746;2023-05-03T07:40:12;4.80;;;1.63;;
13163;SDS011;6647;53.688;10.746;2023-05-03T07:41:33;3.78;;;1.70;;
13163;SDS011;6647;53.688;10.746;2023-05-03T07:42:54;4.70;;;1.80;;
13163;SDS011;6647;53.688;10.746;2023-05-03T07:44:15;6.20;;;1.75;;
13163;SDS011;6647;53.688;10.746;2023-05-03T07:45:36;4.72;;;1.60;;
13163;SDS011;6647;53.688;10.746;2023-05-03T07:47:00;7.57;;;2.00;;
13163;SDS011;6647;53.688;10.746;2023-05-03T07:48:21;7.38;;;2.25;;
13163;SDS011;6647;53.688;10.746;2023-05-03T07:49:42;11.75;;;2.05;;
13163;SDS011;6647;53.688;10.746;2023-05-03T07:51:03;4.85;;;2.33;;
13163;SDS011;6647;53.688;10.746;2023-05-03T07:52:24;8.70;;;1.77;;
13163;SDS011;6647;53.688;10.746;2023-05-03T07:53:45;7.70;;;2.42;;
13163;SDS011;6647;53.688;10.746;2023-05-03T07:55:06;5.85;;;1.77;;
13163;SDS011;6647;53.688;10.746;2023-05-03T07:56:27;7.03;;;2.10;;
13163;SDS011;6647;53.688;10.746;2023-05-03T07:57:48;4.25;;;1.77;;
13163;SDS011;6647;53.688;10.746;2023-05-03T07:59:10;2.78;;;1.50;;
13163;SDS011;6647;53.688;10.746;2023-05-03T08:00:31;6.65;;;1.73;;
13163;SDS011;6647;53.688;10.746;2023-05-03T08:01:54;5.88;;;2.22;;
13163;SDS011;6647;53.688;10.746;2023-05-03T08:03:15;5.63;;;1.50;;
13163;SDS011;6647;53.688;10.746;2023-05-03T08:04:36;8.38;;;1.75;;
13163;SDS011;6647;53.688;10.746;2023-05-03T08:05:57;2.72;;;1.70;;
13163;SDS011;6647;53.688;10.746;2023-05-03T08:07:18;11.23;;;2.20;;
13163;SDS011;6647;53.688;10.746;2023-05-03T08:08:39;5.45;;;1.63;;
13163;SDS011;6647;53.688;10.746;2023-05-03T08:10:01;11.10;;;2.20;;
13163;SDS011;6647;53.688;10.746;2023-05-03T08:11:22;8.70;;;2.25;;
13163;SDS011;6647;53.688;10.746;2023-05-03T08:12:43;4.68;;;1.80;;
13163;SDS011;6647;53.688;10.746;2023-05-03T08:14:05;8.27;;;2.00;;
13163;SDS011;6647;53.688;10.746;2023-05-03T08:15:25;6.07;;;1.85;;
13163;SDS011;6647;53.688;10.746;2023-05-03T08:16:47;7.63;;;1.80;;